Список аэропортов
Фактическая погода:

19 августа, 04:30
Температура: +21°C (+21.0*)
Ветер: сев.-восточный 3 м/с
Давление: *762 мм
Без существ. явл.
Время (МСК)Темп. СВетерВлажностьДавлениеОблачностьОсадки
03:00+22С, 1 м/с75%1018 гПаясно
04:00+21СЗ, 1 м/с76%1018 гПаясно
05:00+21СЗ, 1 м/с77%1018 гПаясно
06:00+20СЗ, 1 м/с76%1018 гПаясно
07:00+20СЗ, 1 м/с78%1018 гПаясно
08:00+21Штиль 75%1018 гПаясно
09:00+23Штиль 70%1018 гПаясно
10:00+26Ю, 1 м/с60%1017 гПаясно
11:00+27Ю, 1 м/с53%1018 гПаясно
12:00+29Ю, 2 м/с48%1017 гПаясно
13:00+30ЮВ, 3 м/с43%1017 гПаясно
14:00+31ЮВ, 3 м/с40%1017 гПаясно
15:00+32ЮВ, 3 м/с41%1017 гПаясно
16:00+32Ю, 4 м/с43%1017 гПас прояснениями
17:00+32Ю, 4 м/с42%1017 гПаоблачно
18:00+32Ю, 3 м/с39%1017 гПаоблачно
19:00+31Ю, 3 м/с41%1017 гПаоблачно
20:00+30ЮВ, 2 м/с50%1017 гПамалооблачно
21:00+27В, 2 м/с60%1018 гПаясно
22:00+26В, 1 м/с70%1018 гПаясно
23:00+25СВ, 1 м/с76%1019 гПаясно
20 августа
00:00+24СВ, 1 м/с79%1019 гПаясно
01:00+24СВ, 1 м/с82%1019 гПаясно
02:00+23Штиль 84%1019 гПаясно
03:00+22Штиль 86%1019 гПаясно
04:00+22Штиль 86%1020 гПаясно
05:00+22СЗ, 1 м/с85%1020 гПаясно
06:00+21СЗ, 1 м/с83%1020 гПаясно
07:00+21СЗ, 1 м/с83%1020 гПаясно
08:00+22С, 1 м/с77%1020 гПаясно
09:00+24Ю, 1 м/с74%1020 гПаясно
10:00+26Ю, 1 м/с65%1020 гПаясно
11:00+28Штиль 58%1020 гПаясно
12:00+30Штиль 51%1019 гПаясно
13:00+32Ю, 2 м/с47%1019 гПаясно
14:00+33Ю, 3 м/с41%1019 гПаясно
15:00+34Ю, 3 м/с37%1018 гПаясно
16:00+34ЮВ, 3 м/с36%1018 гПаясно
17:00+34ЮВ, 3 м/с33%1018 гПаясно
18:00+34Ю, 3 м/с37%1018 гПаясно
19:00+33ЮЗ, 3 м/с39%1018 гПаясно
20:00+31ЮЗ, 2 м/с47%1019 гПаясно
21:00+28Штиль 58%1019 гПаясно
22:00+27В, 1 м/с66%1020 гПаясно
23:00+26СВ, 1 м/с73%1020 гПаясно
21 августа
00:00+25С, 1 м/с75%1021 гПаясно
01:00+25С, 1 м/с76%1021 гПаясно
02:00+24СЗ, 1 м/с75%1021 гПаясно
03:00+23С, 1 м/с73%1020 гПаясно